Time;durP1;ratioP1;P1;durP2;ratioP2;P2;SDS_P1;SDS_P2;PMS_P1;PMS_P2;Temp;Humidity;BMP_temperature;BMP_pressure;BME280_temperature;BME280_humidity;BME280_pressure;Samples;Min_cycle;Max_cycle;Signal;HPM_P1;HPM_P2
2022/01/25 00:15:56;;;;;;;62.28;34.78;;;3.80;99.90;;;;;;5055949;28;20092;-85
2022/01/25 00:26:29;;;;;;;57.85;36.15;;;3.80;99.90;;;;;;5069508;28;20036;-81
2022/01/25 00:31:34;;;;;;;65.28;36.95;;;3.70;99.90;;;;;;5061111;28;20047;-85
2022/01/25 00:34:00;;;;;;;58.20;35.78;;;3.80;99.90;;;;;;5067188;28;20127;-86
2022/01/25 00:36:29;;;;;;;58.35;35.13;;;3.70;99.90;;;;;;5068093;28;20139;-87
2022/01/25 00:38:55;;;;;;;58.90;35.20;;;3.80;99.90;;;;;;5067237;28;20561;-86
2022/01/25 00:41:22;;;;;;;56.55;35.80;;;3.70;99.90;;;;;;5068912;28;20067;-85
2022/01/25 00:43:48;;;;;;;57.97;35.35;;;3.70;99.90;;;;;;5068131;28;20040;-86
2022/01/25 00:46:16;;;;;;;53.78;34.92;;;3.80;99.90;;;;;;5068553;28;20052;-87
2022/01/25 00:48:46;;;;;;;61.80;37.15;;;3.80;99.90;;;;;;5067948;28;20036;-86
2022/01/25 00:54:00;;;;;;;58.45;35.80;;;3.70;99.90;;;;;;5069762;28;20048;-86
2022/01/25 00:56:30;;;;;;;60.90;35.30;;;3.70;99.90;;;;;;5065406;28;20496;-80
2022/01/25 00:58:58;;;;;;;63.38;36.42;;;3.80;99.90;;;;;;5053252;28;20068;-84
2022/01/25 01:01:23;;;;;;;58.20;35.38;;;3.60;99.90;;;;;;5069664;28;20091;-82
2022/01/25 01:03:50;;;;;;;62.08;37.53;;;3.60;99.90;;;;;;5069633;28;20476;-82
2022/01/25 01:06:16;;;;;;;56.03;35.95;;;3.70;99.90;;;;;;5052590;28;20040;-84
2022/01/25 01:08:43;;;;;;;55.70;34.42;;;3.70;99.90;;;;;;5052970;28;20427;-84
2022/01/25 01:11:14;;;;;;;58.63;35.60;;;3.80;99.90;;;;;;5070082;28;20041;-85
2022/01/25 01:30:16;;;;;;;56.42;35.80;;;3.70;99.90;;;;;;5065761;28;20094;-80
2022/01/25 01:43:34;;;;;;;60.03;36.38;;;3.70;99.90;;;;;;5070962;28;20041;-83
2022/01/25 01:45:54;;;;;;;59.92;37.28;;;3.70;99.90;;;;;;5054287;28;20086;-85
2022/01/25 01:48:31;;;;;;;58.38;35.90;;;3.70;99.90;;;;;;5052244;28;20037;-80
2022/01/25 01:51:05;;;;;;;61.42;37.53;;;3.60;99.90;;;;;;5072592;28;20135;-82
2022/01/25 01:53:31;;;;;;;60.28;37.80;;;3.70;99.90;;;;;;5065080;28;20040;-82
2022/01/25 01:55:58;;;;;;;60.17;36.83;;;3.70;99.90;;;;;;5056391;28;20536;-86
2022/01/25 01:58:24;;;;;;;65.25;37.97;;;3.40;99.90;;;;;;5073811;28;20142;-86
2022/01/25 02:00:50;;;;;;;59.22;37.17;;;3.70;99.90;;;;;;5056144;28;20045;-85
2022/01/25 02:03:17;;;;;;;63.17;38.88;;;3.50;99.90;;;;;;5073981;28;20115;-83
2022/01/25 02:05:42;;;;;;;62.45;37.47;;;3.70;99.90;;;;;;5072933;28;20526;-86
2022/01/25 02:08:09;;;;;;;62.50;37.70;;;3.60;99.90;;;;;;5073411;28;20088;-87
2022/01/25 02:10:34;;;;;;;57.75;37.63;;;3.70;99.90;;;;;;5074785;28;20051;-83
2022/01/25 02:13:03;;;;;;;60.70;38.53;;;3.60;99.90;;;;;;5055840;28;20036;-86
2022/01/25 02:15:28;;;;;;;62.50;36.90;;;3.60;99.90;;;;;;5077616;28;20396;-86
2022/01/25 02:23:22;;;;;;;58.63;36.30;;;3.70;99.90;;;;;;5086362;28;20040;-84
2022/01/25 02:25:49;;;;;;;57.42;36.72;;;3.70;99.90;;;;;;5072272;28;20040;-86
2022/01/25 02:28:16;;;;;;;62.90;39.15;;;4.30;99.90;;;;;;5055223;28;20060;-85
2022/01/25 02:30:43;;;;;;;64.47;39.08;;;3.60;99.90;;;;;;5071164;28;20039;-87
2022/01/25 02:33:08;;;;;;;64.00;39.08;;;3.70;99.90;;;;;;5055582;28;20037;-86
2022/01/25 02:35:34;;;;;;;58.78;38.30;;;3.60;99.90;;;;;;5054726;28;20033;-85
2022/01/25 02:38:00;;;;;;;57.97;37.78;;;3.60;99.90;;;;;;5054939;28;20135;-86
2022/01/25 02:40:26;;;;;;;62.63;38.70;;;3.60;99.90;;;;;;5071356;28;20079;-86
2022/01/25 02:42:52;;;;;;;60.25;38.63;;;3.70;99.90;;;;;;5071540;28;20044;-86
2022/01/25 02:45:18;;;;;;;59.13;38.20;;;3.70;99.90;;;;;;5054479;28;20049;-83
2022/01/25 02:50:29;;;;;;;67.75;38.53;;;3.60;99.90;;;;;;5071391;28;20128;-84
2022/01/25 02:52:55;;;;;;;67.72;39.63;;;3.50;99.90;;;;;;5054864;28;20033;-87
2022/01/25 02:55:21;;;;;;;60.03;37.85;;;3.60;99.90;;;;;;5069201;28;20510;-85
2022/01/25 02:57:47;;;;;;;62.95;39.85;;;3.90;99.90;;;;;;5071325;28;20072;-84
2022/01/25 03:00:15;;;;;;;58.72;37.60;;;3.80;99.90;;;;;;5070486;28;20052;-81
2022/01/25 03:02:40;;;;;;;62.53;38.40;;;3.60;99.90;;;;;;5052738;28;20045;-83
2022/01/25 03:05:06;;;;;;;59.83;37.80;;;3.60;99.90;;;;;;5053433;28;20047;-84
2022/01/25 03:07:33;;;;;;;59.10;38.42;;;3.60;99.90;;;;;;5054619;28;20049;-85
2022/01/25 03:10:00;;;;;;;68.28;41.13;;;3.60;99.90;;;;;;5054560;28;20043;-86
2022/01/25 03:13:00;;;;;;;63.38;38.13;;;3.50;99.90;;;;;;5053661;28;20051;-85
2022/01/25 03:17:52;;;;;;;60.40;39.10;;;3.40;99.90;;;;;;5071920;28;20044;-86
2022/01/25 03:20:22;;;;;;;63.20;39.43;;;3.60;99.90;;;;;;5053744;28;20044;-81
2022/01/25 03:25:23;;;;;;;62.42;39.30;;;3.50;99.90;;;;;;5070528;28;20048;-81
2022/01/25 03:27:49;;;;;;;61.80;37.38;;;3.60;99.90;;;;;;5070320;28;20380;-87
2022/01/25 03:30:15;;;;;;;61.55;38.20;;;3.50;99.90;;;;;;5054306;28;20124;-85
2022/01/25 03:32:41;;;;;;;66.38;40.05;;;3.10;99.90;;;;;;5070361;28;20404;-86
2022/01/25 03:35:06;;;;;;;61.55;38.75;;;3.50;99.90;;;;;;5053849;28;20161;-86
2022/01/25 03:37:32;;;;;;;64.50;39.65;;;3.60;99.90;;;;;;5062016;28;20411;-85
2022/01/25 03:39:58;;;;;;;64.63;39.08;;;3.60;99.90;;;;;;5053792;28;20475;-85
2022/01/25 03:42:24;;;;;;;63.03;38.35;;;3.60;99.90;;;;;;5053570;28;20401;-84
2022/01/25 03:44:51;;;;;;;60.42;35.67;;;3.60;99.90;;;;;;5053670;28;20044;-86
2022/01/25 03:47:20;;;;;;;64.18;37.78;;;3.60;99.90;;;;;;5071572;28;20123;-86
2022/01/25 03:49:52;;;;;;;60.88;36.58;;;3.60;99.90;;;;;;5053808;28;20097;-85
2022/01/25 03:52:33;;;;;;;65.15;39.65;;;3.60;99.90;;;;;;5052591;28;20072;-82
2022/01/25 03:54:59;;;;;;;63.85;36.38;;;3.60;99.90;;;;;;5070013;28;20067;-87
2022/01/25 03:57:27;;;;;;;64.22;36.13;;;3.50;99.90;;;;;;5052897;28;20415;-87
2022/01/25 03:59:56;;;;;;;59.97;36.78;;;3.40;99.90;;;;;;5053519;28;20044;-83
2022/01/25 04:02:23;;;;;;;61.83;36.38;;;3.50;99.90;;;;;;5069379;28;20045;-85
2022/01/25 04:04:50;;;;;;;60.78;36.83;;;3.50;99.90;;;;;;5052545;28;20112;-86
2022/01/25 04:07:24;;;;;;;60.08;37.17;;;3.40;99.90;;;;;;5055412;28;20040;-84
2022/01/25 04:09:50;;;;;;;62.00;36.90;;;3.40;99.90;;;;;;5053398;28;20527;-81
2022/01/25 04:12:17;;;;;;;60.63;37.92;;;3.50;99.90;;;;;;5070522;28;20127;-85
2022/01/25 04:14:43;;;;;;;60.97;37.85;;;3.50;99.90;;;;;;5070059;28;20055;-84
2022/01/25 04:17:12;;;;;;;63.05;36.95;;;3.50;99.90;;;;;;5069151;28;20032;-84
2022/01/25 04:19:44;;;;;;;62.90;38.33;;;3.40;99.90;;;;;;5069011;28;20041;-84
2022/01/25 04:27:24;;;;;;;59.67;36.60;;;3.50;99.90;;;;;;5068798;28;20415;-84
2022/01/25 04:29:51;;;;;;;63.47;37.83;;;3.50;99.90;;;;;;5069837;28;20400;-84
2022/01/25 04:32:18;;;;;;;64.88;37.47;;;3.50;99.90;;;;;;5053316;28;20087;-86
2022/01/25 04:35:08;;;;;;;60.47;35.90;;;3.30;99.90;;;;;;5052762;28;20049;-82
2022/01/25 04:51:46;;;;;;;66.43;38.53;;;3.40;99.90;;;;;;5066718;28;20053;-84
2022/01/25 04:54:11;;;;;;;61.00;37.95;;;3.50;99.90;;;;;;5071041;28;20283;-85
2022/01/25 04:56:56;;;;;;;62.08;37.42;;;3.30;99.90;;;;;;5060945;28;20476;-86
2022/01/25 05:01:59;;;;;;;59.97;37.67;;;3.50;99.90;;;;;;5068661;28;20045;-86
2022/01/25 05:04:30;;;;;;;59.88;37.38;;;3.10;99.90;;;;;;5059945;28;20040;-85
2022/01/25 05:07:05;;;;;;;61.53;36.22;;;3.30;99.90;;;;;;5070184;28;20040;-86
2022/01/25 05:09:33;;;;;;;68.25;39.83;;;3.50;99.90;;;;;;5068996;28;20496;-86
2022/01/25 05:11:59;;;;;;;64.35;39.22;;;3.50;99.90;;;;;;5069002;28;20040;-87
2022/01/25 05:14:31;;;;;;;60.35;36.97;;;3.50;99.90;;;;;;5052305;28;20047;-86
2022/01/25 05:17:03;;;;;;;59.90;36.85;;;3.50;99.90;;;;;;5051480;28;20037;-85
2022/01/25 05:24:42;;;;;;;65.38;37.97;;;3.50;99.90;;;;;;5071577;28;20084;-87
2022/01/25 05:27:11;;;;;;;64.60;37.90;;;3.40;99.90;;;;;;5072479;28;20055;-85
2022/01/25 05:29:37;;;;;;;61.03;38.25;;;3.30;99.90;;;;;;5073258;28;20492;-86
2022/01/25 05:32:03;;;;;;;67.53;41.08;;;3.50;99.90;;;;;;5056575;28;20051;-84
2022/01/25 05:34:28;;;;;;;65.15;39.17;;;3.50;99.90;;;;;;5072374;28;20047;-86
2022/01/25 05:36:55;;;;;;;69.05;41.65;;;3.50;99.90;;;;;;5073562;28;20442;-84
2022/01/25 05:39:26;;;;;;;64.60;39.10;;;4.80;99.90;;;;;;5073705;28;20088;-83
2022/01/25 05:41:57;;;;;;;64.15;39.78;;;3.40;99.90;;;;;;5073364;28;20051;-85
2022/01/25 05:47:05;;;;;;;68.88;40.53;;;3.00;99.90;;;;;;5066657;28;20044;-86
2022/01/25 05:49:33;;;;;;;63.55;38.40;;;3.50;99.90;;;;;;5055877;28;20044;-86
2022/01/25 05:51:58;;;;;;;67.18;40.45;;;3.10;99.90;;;;;;5072591;28;20047;-87
2022/01/25 05:54:24;;;;;;;64.55;39.35;;;3.40;99.90;;;;;;5073585;28;20044;-88
2022/01/25 05:56:50;;;;;;;65.20;38.95;;;4.30;99.90;;;;;;5056394;28;20033;-88
2022/01/25 05:59:16;;;;;;;65.88;38.65;;;3.20;99.90;;;;;;5056804;28;20040;-85
2022/01/25 06:01:44;;;;;;;67.93;40.95;;;4.50;99.90;;;;;;5072343;28;20503;-88
2022/01/25 06:04:10;;;;;;;64.50;39.13;;;3.40;99.90;;;;;;5056592;28;20079;-85
2022/01/25 06:06:35;;;;;;;70.32;42.58;;;3.40;99.90;;;;;;5073355;28;20044;-86
2022/01/25 06:09:01;;;;;;;64.15;40.03;;;3.40;99.90;;;;;;5058924;28;20506;-88
2022/01/25 06:11:27;;;;;;;67.15;40.17;;;3.40;99.90;;;;;;5055829;28;20040;-87
2022/01/25 06:13:52;;;;;;;65.93;40.55;;;3.40;99.90;;;;;;5055551;28;20040;-86
2022/01/25 06:16:18;;;;;;;64.07;38.50;;;3.50;99.90;;;;;;5055693;28;20045;-88
2022/01/25 06:18:45;;;;;;;68.00;42.03;;;3.40;99.90;;;;;;5056391;28;20126;-85
2022/01/25 06:21:10;;;;;;;67.35;41.67;;;3.40;99.90;;;;;;5056122;28;20041;-79
2022/01/25 06:23:36;;;;;;;66.80;40.38;;;3.40;99.90;;;;;;5070975;28;20055;-85
2022/01/25 06:26:02;;;;;;;68.65;42.30;;;3.50;99.90;;;;;;5056140;28;20036;-84
2022/01/25 06:28:28;;;;;;;68.00;39.22;;;3.40;99.90;;;;;;5071890;28;20484;-87
2022/01/25 06:30:54;;;;;;;69.57;41.25;;;3.30;99.90;;;;;;5071635;28;20098;-82
2022/01/25 06:33:20;;;;;;;71.82;42.13;;;3.50;99.90;;;;;;5071708;28;20136;-83
2022/01/25 06:35:46;;;;;;;70.18;40.67;;;3.50;99.90;;;;;;5071239;28;20032;-87
2022/01/25 06:38:13;;;;;;;67.75;41.13;;;3.50;99.90;;;;;;5073510;28;20064;-88
2022/01/25 06:40:38;;;;;;;68.40;41.33;;;3.40;99.90;;;;;;5054580;28;20052;-82
2022/01/25 06:43:04;;;;;;;90.95;56.42;;;3.40;99.90;;;;;;5071195;28;20098;-87
2022/01/25 06:45:30;;;;;;;69.38;42.28;;;3.50;99.90;;;;;;5054595;28;20045;-86
2022/01/25 06:47:56;;;;;;;66.68;40.55;;;3.50;99.90;;;;;;5071963;28;20631;-88
2022/01/25 06:50:23;;;;;;;68.35;41.85;;;3.50;99.90;;;;;;5071380;28;20041;-87
2022/01/25 06:52:50;;;;;;;68.15;40.70;;;3.50;99.90;;;;;;5072259;28;20449;-87
2022/01/25 06:55:17;;;;;;;67.30;42.40;;;3.40;99.90;;;;;;5071575;28;20049;-87
2022/01/25 06:57:44;;;;;;;68.38;40.65;;;3.50;99.90;;;;;;5071198;28;20120;-86
2022/01/25 07:00:14;;;;;;;70.38;41.25;;;3.30;99.90;;;;;;5056374;28;20076;-86
2022/01/25 07:02:39;;;;;;;72.13;42.67;;;3.50;99.90;;;;;;5070178;28;20087;-87
2022/01/25 07:05:05;;;;;;;72.85;42.97;;;3.50;99.90;;;;;;5069114;28;20079;-86
2022/01/25 07:07:31;;;;;;;64.50;40.65;;;3.50;99.90;;;;;;5043447;28;20067;-86
2022/01/25 07:09:57;;;;;;;69.38;41.65;;;3.40;99.90;;;;;;5064092;28;20471;-83
2022/01/25 07:12:23;;;;;;;70.32;41.70;;;3.50;99.90;;;;;;5046649;28;20048;-83
2022/01/25 07:14:49;;;;;;;69.93;41.63;;;3.50;99.90;;;;;;5068917;28;20058;-87
2022/01/25 07:17:15;;;;;;;74.15;42.72;;;3.40;99.90;;;;;;5065592;28;20115;-87
2022/01/25 07:19:40;;;;;;;68.45;40.25;;;3.50;99.90;;;;;;5069018;28;20149;-82
2022/01/25 07:22:06;;;;;;;64.28;38.83;;;3.50;99.90;;;;;;5071533;28;20040;-87
2022/01/25 07:24:32;;;;;;;69.50;40.65;;;3.40;99.90;;;;;;5053338;28;20040;-85
2022/01/25 07:26:58;;;;;;;65.72;40.80;;;3.60;99.90;;;;;;5050066;28;20127;-84
2022/01/25 07:29:24;;;;;;;67.07;40.85;;;3.60;99.90;;;;;;5069274;28;20127;-87
2022/01/25 07:31:49;;;;;;;85.30;52.22;;;3.50;99.90;;;;;;5054631;28;20060;-82
2022/01/25 07:34:15;;;;;;;71.97;43.22;;;3.40;99.90;;;;;;5068425;28;20040;-86
2022/01/25 07:36:42;;;;;;;72.80;43.25;;;3.50;99.90;;;;;;5052490;28;20040;-81
2022/01/25 07:39:09;;;;;;;69.97;42.45;;;3.50;99.90;;;;;;5070138;28;20408;-83
2022/01/25 07:41:35;;;;;;;67.57;41.20;;;3.50;99.90;;;;;;5061059;28;20095;-88
2022/01/25 07:44:01;;;;;;;68.28;40.25;;;3.40;99.90;;;;;;5059865;28;20479;-83
2022/01/25 07:46:28;;;;;;;74.20;42.53;;;3.50;99.90;;;;;;5062276;28;20051;-82
2022/01/25 07:48:53;;;;;;;72.30;40.83;;;3.50;99.90;;;;;;5062552;28;20407;-84
2022/01/25 07:51:19;;;;;;;68.10;40.10;;;5.30;99.90;;;;;;5053010;28;20036;-86
2022/01/25 07:53:45;;;;;;;69.53;42.03;;;3.50;99.90;;;;;;5062031;28;20500;-86
2022/01/25 07:56:10;;;;;;;70.72;41.42;;;3.50;99.90;;;;;;5070211;28;20037;-87
2022/01/25 07:58:38;;;;;;;65.30;39.80;;;3.50;99.90;;;;;;5065534;28;20094;-85
2022/01/25 08:01:04;;;;;;;68.20;39.80;;;3.40;99.90;;;;;;5070899;28;20044;-84
2022/01/25 08:03:30;;;;;;;68.22;41.28;;;3.50;99.90;;;;;;5056691;28;20036;-79
2022/01/25 08:05:56;;;;;;;66.50;39.95;;;3.40;99.90;;;;;;5058912;28;20365;-80
2022/01/25 08:08:21;;;;;;;67.65;40.90;;;3.40;99.90;;;;;;5049004;28;20484;-80
2022/01/25 08:10:47;;;;;;;66.30;40.92;;;3.40;99.90;;;;;;5072031;28;20086;-80
2022/01/25 08:13:13;;;;;;;64.80;40.85;;;3.40;99.90;;;;;;5059228;28;20396;-82
2022/01/25 08:15:39;;;;;;;67.80;41.00;;;5.50;99.90;;;;;;5062202;28;20044;-81
2022/01/25 08:18:05;;;;;;;69.93;41.67;;;3.40;99.90;;;;;;5066050;28;20040;-83
2022/01/25 08:20:31;;;;;;;64.22;40.30;;;3.40;99.90;;;;;;5063694;28;20514;-81
2022/01/25 08:22:57;;;;;;;71.32;42.80;;;3.50;99.90;;;;;;5051930;28;20085;-85
2022/01/25 08:25:22;;;;;;;64.32;38.58;;;4.90;99.90;;;;;;5065417;28;20045;-86
2022/01/25 08:27:49;;;;;;;70.40;40.92;;;3.50;99.90;;;;;;5062485;28;20044;-82
2022/01/25 08:30:15;;;;;;;70.20;40.28;;;3.40;99.90;;;;;;5048662;28;20128;-82
2022/01/25 08:32:41;;;;;;;74.32;41.85;;;3.40;99.90;;;;;;5067644;28;20079;-82
2022/01/25 08:35:07;;;;;;;81.50;47.58;;;3.40;99.90;;;;;;5048662;28;20048;-83
2022/01/25 08:37:32;;;;;;;68.07;41.53;;;3.60;99.90;;;;;;5068760;28;20531;-82
2022/01/25 08:40:03;;;;;;;72.78;41.80;;;3.40;99.90;;;;;;5064904;28;20041;-83
2022/01/25 08:42:28;;;;;;;71.00;41.25;;;3.40;99.90;;;;;;5040846;28;20537;-82
2022/01/25 08:44:54;;;;;;;68.22;42.20;;;3.50;99.90;;;;;;5061935;28;20044;-81
2022/01/25 08:47:20;;;;;;;67.20;40.53;;;4.60;99.90;;;;;;5064081;28;20369;-81
2022/01/25 08:49:45;;;;;;;61.38;39.10;;;4.00;99.90;;;;;;5050412;28;20511;-81
2022/01/25 08:52:11;;;;;;;66.78;38.70;;;4.10;99.90;;;;;;5064256;28;20182;-85
2022/01/25 08:54:37;;;;;;;66.47;39.83;;;3.00;99.90;;;;;;5063605;28;20025;-89
2022/01/25 08:57:03;;;;;;;68.13;40.08;;;3.50;99.90;;;;;;5041032;28;20565;-83
2022/01/25 08:59:29;;;;;;;69.88;41.40;;;3.60;99.90;;;;;;5051048;28;20052;-82
2022/01/25 09:01:55;;;;;;;64.30;39.90;;;3.40;99.90;;;;;;5066684;28;20036;-82
2022/01/25 09:04:20;;;;;;;69.90;39.13;;;3.50;99.90;;;;;;5054185;28;20045;-81
2022/01/25 09:06:46;;;;;;;69.97;38.92;;;3.50;99.90;;;;;;5050762;28;20407;-82
2022/01/25 09:09:11;;;;;;;67.60;40.00;;;3.50;99.90;;;;;;5069259;28;20044;-81
2022/01/25 09:11:40;;;;;;;67.00;41.13;;;3.60;99.90;;;;;;5062960;28;20189;-81
2022/01/25 09:14:06;;;;;;;66.82;38.67;;;5.70;99.90;;;;;;5065621;28;20385;-82
2022/01/25 09:16:33;;;;;;;66.70;39.17;;;3.40;99.90;;;;;;5047198;28;20041;-83
2022/01/25 09:18:59;;;;;;;66.13;40.95;;;4.10;99.90;;;;;;5068153;28;20040;-81
2022/01/25 09:21:26;;;;;;;68.10;40.90;;;5.70;99.90;;;;;;5051988;28;20098;-81
2022/01/25 09:23:53;;;;;;;66.35;39.47;;;3.60;99.90;;;;;;5069458;28;20064;-82
2022/01/25 09:26:18;;;;;;;67.50;39.33;;;3.40;99.90;;;;;;5066488;28;20474;-85
2022/01/25 09:28:44;;;;;;;66.68;39.75;;;3.50;99.90;;;;;;5068135;28;20055;-88
2022/01/25 09:31:10;;;;;;;63.45;38.25;;;3.60;99.90;;;;;;5062620;28;20412;-89
2022/01/25 09:33:35;;;;;;;77.60;42.72;;;3.50;99.90;;;;;;5063174;28;20135;-82
2022/01/25 09:36:01;;;;;;;69.80;41.30;;;4.20;99.90;;;;;;5069935;28;20054;-83
2022/01/25 09:38:26;;;;;;;77.30;44.97;;;3.60;99.90;;;;;;5068848;28;20043;-86
2022/01/25 09:40:53;;;;;;;66.28;40.47;;;3.50;99.90;;;;;;5068548;28;20502;-86
2022/01/25 09:43:20;;;;;;;67.03;39.80;;;4.50;99.90;;;;;;5051057;28;20080;-88
2022/01/25 09:45:46;;;;;;;69.78;39.78;;;3.90;99.90;;;;;;5051894;28;20049;-86
2022/01/25 09:48:14;;;;;;;68.70;39.88;;;3.50;99.90;;;;;;5069142;28;20037;-86
2022/01/25 09:50:40;;;;;;;67.18;40.90;;;5.50;99.90;;;;;;5051691;28;20079;-84
2022/01/25 09:53:06;;;;;;;66.10;38.67;;;3.70;99.90;;;;;;5061471;28;20064;-86
2022/01/25 09:55:35;;;;;;;74.55;41.05;;;3.60;99.90;;;;;;5051930;28;20079;-86
2022/01/25 09:58:02;;;;;;;64.88;38.45;;;4.00;99.90;;;;;;5061795;28;20041;-83
2022/01/25 10:00:29;;;;;;;69.57;40.38;;;3.40;99.90;;;;;;5066303;28;20052;-89
2022/01/25 10:03:19;;;;;;;73.57;39.55;;;3.50;99.90;;;;;;5066600;28;20061;-89
2022/01/25 10:05:48;;;;;;;71.38;41.08;;;3.60;99.90;;;;;;5068414;28;20056;-89
2022/01/25 10:08:24;;;;;;;71.40;40.30;;;3.50;99.90;;;;;;5069222;28;20080;-88
2022/01/25 10:10:56;;;;;;;71.60;40.53;;;3.60;99.90;;;;;;5074031;28;20041;-89
2022/01/25 10:13:25;;;;;;;67.65;39.53;;;3.50;99.90;;;;;;5067312;28;20048;-88
2022/01/25 10:16:04;;;;;;;70.22;41.40;;;3.50;99.90;;;;;;5074335;28;20044;-87
2022/01/25 10:18:41;;;;;;;71.35;39.33;;;3.60;99.90;;;;;;5072066;28;20052;-89
2022/01/25 10:21:21;;;;;;;69.25;39.08;;;3.60;99.90;;;;;;5070600;28;20049;-89
2022/01/25 10:24:05;;;;;;;69.22;39.47;;;3.60;99.90;;;;;;5055723;28;20044;-88
2022/01/25 10:26:35;;;;;;;70.80;41.38;;;3.60;99.90;;;;;;5063660;28;20464;-89
2022/01/25 10:29:03;;;;;;;70.93;39.78;;;3.50;99.90;;;;;;5065479;28;20040;-83
2022/01/25 10:31:36;;;;;;;74.40;41.75;;;3.40;99.90;;;;;;5054594;28;20546;-88
2022/01/25 10:34:03;;;;;;;73.38;40.92;;;3.50;99.90;;;;;;5050576;28;20083;-89
2022/01/25 10:36:28;;;;;;;70.88;40.58;;;3.40;99.90;;;;;;5071944;28;20045;-89
2022/01/25 10:38:55;;;;;;;73.15;41.95;;;3.50;99.90;;;;;;5055853;28;20078;-88
2022/01/25 10:41:24;;;;;;;72.45;42.13;;;3.50;99.90;;;;;;5045824;28;20049;-87
2022/01/25 10:43:52;;;;;;;68.70;40.58;;;3.50;99.90;;;;;;5054705;28;20037;-88
2022/01/25 10:46:24;;;;;;;70.65;41.65;;;3.50;99.90;;;;;;5072201;28;20053;-85
2022/01/25 10:48:57;;;;;;;71.10;41.13;;;3.60;99.90;;;;;;5052183;28;20041;-89
2022/01/25 10:51:33;;;;;;;73.80;41.63;;;3.60;99.90;;;;;;5070833;28;20076;-88
2022/01/25 10:54:05;;;;;;;74.25;43.03;;;3.50;99.90;;;;;;5071151;28;20132;-87
2022/01/25 10:56:37;;;;;;;70.32;39.72;;;3.20;99.90;;;;;;5054265;28;20434;-88
2022/01/25 10:59:06;;;;;;;72.72;41.47;;;3.60;99.90;;;;;;5055586;28;20033;-89
2022/01/25 11:01:47;;;;;;;68.03;38.97;;;3.60;99.90;;;;;;5069460;28;20045;-88
2022/01/25 11:04:14;;;;;;;71.70;41.33;;;3.70;99.90;;;;;;5055171;28;20094;-88
2022/01/25 11:06:41;;;;;;;65.60;38.47;;;3.60;99.90;;;;;;5054364;28;20078;-89
2022/01/25 11:09:10;;;;;;;69.63;39.30;;;3.70;99.90;;;;;;5054029;28;20492;-88
2022/01/25 11:11:44;;;;;;;74.70;43.08;;;3.60;99.90;;;;;;5051496;28;20059;-89
2022/01/25 11:16:55;;;;;;;70.32;40.25;;;3.60;99.90;;;;;;5071174;28;20058;-88
2022/01/25 11:19:22;;;;;;;75.85;42.05;;;3.70;99.90;;;;;;5071038;28;20045;-86
2022/01/25 11:21:49;;;;;;;71.95;42.22;;;3.60;99.90;;;;;;5070096;28;20040;-88
2022/01/25 11:24:16;;;;;;;71.88;39.92;;;3.70;99.90;;;;;;5054084;28;20067;-87
2022/01/25 11:26:44;;;;;;;79.82;42.53;;;3.60;99.90;;;;;;5064701;28;20041;-87
2022/01/25 11:29:09;;;;;;;75.40;40.00;;;3.70;99.90;;;;;;5046266;28;20056;-88
2022/01/25 11:31:39;;;;;;;78.47;43.13;;;3.70;99.90;;;;;;5065284;28;20037;-88
2022/01/25 11:34:09;;;;;;;73.20;42.25;;;3.60;99.90;;;;;;5054314;28;20099;-88
2022/01/25 11:36:53;;;;;;;72.90;41.13;;;3.90;99.90;;;;;;5069525;28;20514;-88
2022/01/25 11:39:21;;;;;;;69.20;39.88;;;5.70;99.90;;;;;;5068962;28;20056;-87
2022/01/25 11:41:47;;;;;;;74.93;42.90;;;3.70;99.90;;;;;;5062534;28;20465;-88
2022/01/25 11:44:18;;;;;;;84.20;42.90;;;3.70;99.90;;;;;;5050674;28;20053;-87
2022/01/25 11:46:56;;;;;;;67.22;38.50;;;3.50;99.90;;;;;;5061570;28;20041;-86
2022/01/25 11:49:23;;;;;;;69.13;38.88;;;3.80;99.90;;;;;;5051055;28;20040;-84
2022/01/25 11:52:04;;;;;;;82.05;42.13;;;3.70;99.90;;;;;;5067667;28;20037;-84
2022/01/25 11:54:30;;;;;;;77.38;40.53;;;4.00;99.90;;;;;;5046706;28;20040;-84
2022/01/25 11:57:09;;;;;;;72.72;41.13;;;3.70;99.90;;;;;;5046118;28;20039;-84
2022/01/25 11:59:36;;;;;;;76.43;41.45;;;4.70;99.90;;;;;;5053902;28;20119;-84
2022/01/25 12:02:02;;;;;;;61.30;36.58;;;6.00;99.90;;;;;;5070224;28;20040;-84
2022/01/25 12:04:29;;;;;;;74.32;40.95;;;3.90;99.90;;;;;;5069825;28;20040;-84
2022/01/25 12:07:13;;;;;;;73.38;41.00;;;3.70;99.90;;;;;;5071026;28;20101;-84
2022/01/25 12:09:52;;;;;;;69.15;41.75;;;3.90;99.90;;;;;;5067476;28;20530;-91
2022/01/25 12:12:18;;;;;;;71.70;39.97;;;3.70;99.90;;;;;;4353646;28;10000695;-84
2022/01/25 12:14:49;;;;;;;78.88;42.47;;;3.70;99.90;;;;;;5071953;28;20135;-88
2022/01/25 12:17:23;;;;;;;67.63;39.63;;;3.80;99.90;;;;;;5054371;28;20037;-86
2022/01/25 12:19:58;;;;;;;70.30;40.65;;;3.80;99.90;;;;;;5046146;28;20135;-86
2022/01/25 12:22:34;;;;;;;75.32;41.38;;;3.20;99.90;;;;;;5065077;28;20056;-86
2022/01/25 12:25:12;;;;;;;70.88;41.10;;;3.80;99.90;;;;;;5068556;28;20726;-85
2022/01/25 12:27:59;;;;;;;73.88;42.13;;;3.80;99.90;;;;;;5050294;28;20143;-84
2022/01/25 12:30:25;;;;;;;79.70;40.88;;;3.80;99.90;;;;;;5059521;28;20484;-84
2022/01/25 12:32:59;;;;;;;75.00;39.45;;;3.70;99.90;;;;;;5066415;28;20047;-83
2022/01/25 12:35:36;;;;;;;78.68;41.78;;;3.70;99.90;;;;;;5050460;28;20055;-85
2022/01/25 12:38:28;;;;;;;71.32;40.60;;;3.80;99.90;;;;;;5063081;28;20062;-83
2022/01/25 12:41:08;;;;;;;74.07;40.80;;;3.80;99.90;;;;;;5067368;28;20056;-83
2022/01/25 12:43:41;;;;;;;75.30;38.92;;;3.80;99.90;;;;;;5064503;28;20177;-83
2022/01/25 12:46:25;;;;;;;77.72;40.60;;;3.80;99.90;;;;;;5061799;28;20495;-81
2022/01/25 12:49:03;;;;;;;74.65;41.38;;;3.80;99.90;;;;;;5048673;28;20050;-80
2022/01/25 12:51:36;;;;;;;74.45;40.03;;;3.70;99.90;;;;;;5055646;28;20090;-85
2022/01/25 12:54:07;;;;;;;78.05;40.00;;;3.80;99.90;;;;;;5046466;28;20053;-86
2022/01/25 12:56:43;;;;;;;73.85;40.88;;;3.80;99.90;;;;;;5065889;28;20041;-85
2022/01/25 12:59:22;;;;;;;83.70;41.33;;;3.70;99.90;;;;;;5058532;28;20060;-86
2022/01/25 13:01:50;;;;;;;73.50;41.10;;;4.40;99.90;;;;;;5051766;28;20045;-87
2022/01/25 13:04:16;;;;;;;73.30;40.35;;;3.70;99.90;;;;;;5052590;28;20480;-86
2022/01/25 13:06:46;;;;;;;76.47;41.35;;;3.80;99.90;;;;;;5068718;28;20055;-87
2022/01/25 13:09:50;;;;;;;75.15;40.50;;;3.60;99.90;;;;;;5063760;28;20088;-85
2022/01/25 13:17:22;;;;;;;73.60;40.22;;;3.80;99.90;;;;;;5062501;28;20048;-87
2022/01/25 13:19:52;;;;;;;72.63;39.97;;;3.80;99.90;;;;;;5068909;28;20059;-86
2022/01/25 13:22:29;;;;;;;75.10;41.03;;;4.10;99.90;;;;;;5068433;28;20062;-82
2022/01/25 13:25:12;;;;;;;66.82;38.92;;;3.80;99.90;;;;;;5066101;28;20040;-81
2022/01/25 13:27:49;;;;;;;74.38;40.53;;;3.70;99.90;;;;;;5064221;28;20049;-89
2022/01/25 13:33:01;;;;;;;76.97;41.72;;;3.60;99.90;;;;;;5060864;28;20081;-86
2022/01/25 13:35:31;;;;;;;71.97;40.67;;;3.80;99.90;;;;;;5048734;28;20080;-86
2022/01/25 13:38:18;;;;;;;72.20;39.08;;;4.10;99.90;;;;;;5065797;28;20130;-82
2022/01/25 13:45:53;;;;;;;73.30;40.28;;;3.80;99.90;;;;;;5066567;28;20087;-86
2022/01/25 13:48:21;;;;;;;75.95;41.78;;;3.70;99.90;;;;;;5058737;28;20033;-88
2022/01/25 13:50:53;;;;;;;72.43;40.00;;;3.70;99.90;;;;;;5040389;28;20033;-88
2022/01/25 13:53:18;;;;;;;75.28;41.95;;;3.80;99.90;;;;;;5069647;28;20045;-87
2022/01/25 13:55:50;;;;;;;81.00;40.85;;;3.80;99.90;;;;;;5068996;28;20039;-88
2022/01/25 13:58:20;;;;;;;74.32;41.35;;;3.40;99.90;;;;;;5063472;28;20048;-89
2022/01/25 14:00:46;;;;;;;74.13;42.47;;;3.80;99.90;;;;;;5051488;28;20111;-86
2022/01/25 14:03:15;;;;;;;74.28;40.42;;;3.60;99.90;;;;;;5064215;28;20056;-82
2022/01/25 14:05:41;;;;;;;80.53;42.40;;;3.50;99.90;;;;;;5076954;28;20037;-87
2022/01/25 14:08:06;;;;;;;75.65;40.00;;;3.50;99.90;;;;;;5060843;28;20090;-86
2022/01/25 14:10:32;;;;;;;80.28;41.63;;;3.60;99.90;;;;;;5058580;28;20099;-81
2022/01/25 14:24:14;;;;;;;81.65;44.55;;;3.80;99.90;;;;;;5070383;28;20488;-81
2022/01/25 14:26:41;;;;;;;83.85;45.45;;;3.50;99.90;;;;;;5054650;28;20036;-84
2022/01/25 14:29:18;;;;;;;83.47;44.13;;;3.70;99.90;;;;;;5054292;28;20048;-82
2022/01/25 14:31:46;;;;;;;85.53;43.65;;;3.70;99.90;;;;;;5051249;28;20044;-82
2022/01/25 14:34:14;;;;;;;85.30;44.67;;;3.80;99.90;;;;;;5055099;28;20052;-82
2022/01/25 14:36:42;;;;;;;75.72;37.42;;;3.70;99.90;;;;;;5051172;28;20079;-82
2022/01/25 14:39:10;;;;;;;86.28;47.05;;;3.70;99.90;;;;;;5068465;28;20053;-83
2022/01/25 14:41:38;;;;;;;81.13;42.17;;;3.70;99.90;;;;;;5066397;28;20051;-89
2022/01/25 14:44:13;;;;;;;75.25;39.63;;;3.60;99.90;;;;;;5060379;28;20049;-86
2022/01/25 14:46:43;;;;;;;83.03;40.60;;;3.70;99.90;;;;;;5052993;28;20052;-89
2022/01/25 14:49:21;;;;;;;88.68;44.60;;;3.20;99.90;;;;;;5071756;28;20040;-87